Time;durP1;ratioP1;P1;durP2;ratioP2;P2;SDS_P1;SDS_P2;PMS_P1;PMS_P2;Temp;Humidity;BMP_temperature;BMP_pressure;BME280_temperature;BME280_humidity;BME280_pressure;Samples;Min_cycle;Max_cycle;Signal;HPM_P1;HPM_P2
2023/02/13 00:00:33;;;;;;;;;32.00;27.75;;;;;;;;5079886;27;51219;-52
2023/02/13 00:03:18;;;;;;;;;29.25;25.50;;;;;;;;5080000;27;51172;-54
2023/02/13 00:06:02;;;;;;;;;27.50;23.75;;;;;;;;5079666;27;51114;-55
2023/02/13 00:08:47;;;;;;;;;31.75;25.75;;;;;;;;5079844;27;51157;-52
2023/02/13 00:11:31;;;;;;;;;34.00;26.00;;;;;;;;5079909;27;51464;-53
2023/02/13 00:14:16;;;;;;;;;37.00;28.25;;;;;;;;5079776;27;51113;-52
2023/02/13 00:17:00;;;;;;;;;26.00;23.50;;;;;;;;5079363;27;51474;-56
2023/02/13 00:19:44;;;;;;;;;26.25;23.50;;;;;;;;5079854;27;51047;-53
2023/02/13 00:22:29;;;;;;;;;26.00;25.00;;;;;;;;5079681;27;51472;-52
2023/02/13 00:25:13;;;;;;;;;29.25;25.00;;;;;;;;5079231;28;51075;-53
2023/02/13 00:27:58;;;;;;;;;30.25;23.00;;;;;;;;5079923;28;51069;-53
2023/02/13 00:30:42;;;;;;;;;26.00;22.25;;;;;;;;5079559;28;51191;-55
2023/02/13 00:33:26;;;;;;;;;29.50;26.50;;;;;;;;5079177;28;51147;-52
2023/02/13 00:36:16;;;;;;;;;27.00;21.75;;;;;;;;5079448;28;51070;-52
2023/02/13 00:39:00;;;;;;;;;27.75;24.50;;;;;;;;5079660;28;51215;-52
2023/02/13 00:41:44;;;;;;;;;34.25;26.50;;;;;;;;5079412;28;51551;-55
2023/02/13 00:44:29;;;;;;;;;31.75;23.50;;;;;;;;5081621;27;51044;-53
2023/02/13 00:47:13;;;;;;;;;35.00;24.50;;;;;;;;5083470;27;51538;-53
2023/02/13 00:49:58;;;;;;;;;27.00;23.50;;;;;;;;5083276;27;51166;-52
2023/02/13 00:52:42;;;;;;;;;25.50;24.75;;;;;;;;5083934;27;51065;-53
2023/02/13 00:55:26;;;;;;;;;27.75;23.25;;;;;;;;5083236;27;51050;-54
2023/02/13 00:58:11;;;;;;;;;32.75;24.00;;;;;;;;5083418;27;51234;-50
2023/02/13 01:00:55;;;;;;;;;28.50;24.00;;;;;;;;5083654;27;51160;-54
2023/02/13 01:03:40;;;;;;;;;26.25;24.50;;;;;;;;5083232;27;51298;-53
2023/02/13 01:06:24;;;;;;;;;28.50;23.25;;;;;;;;5083024;27;51388;-55
2023/02/13 01:09:08;;;;;;;;;28.25;24.00;;;;;;;;5083120;27;51164;-54
2023/02/13 01:11:53;;;;;;;;;26.00;23.00;;;;;;;;5083237;27;51072;-54
2023/02/13 01:14:37;;;;;;;;;32.00;26.00;;;;;;;;5082836;27;51030;-54
2023/02/13 01:17:22;;;;;;;;;22.00;19.50;;;;;;;;5083091;27;51069;-53
2023/02/13 01:20:07;;;;;;;;;29.25;27.00;;;;;;;;5082863;27;51228;-55
2023/02/13 01:22:51;;;;;;;;;34.00;28.00;;;;;;;;5082853;27;51104;-54
2023/02/13 01:25:38;;;;;;;;;35.25;28.50;;;;;;;;5082680;27;51567;-54
2023/02/13 01:28:23;;;;;;;;;29.25;24.75;;;;;;;;5082932;27;51135;-55
2023/02/13 01:31:07;;;;;;;;;29.75;24.75;;;;;;;;5082695;27;51415;-54
2023/02/13 01:33:58;;;;;;;;;27.00;23.00;;;;;;;;5082260;27;51315;-55
2023/02/13 01:36:42;;;;;;;;;30.75;24.50;;;;;;;;5082648;27;51233;-52
2023/02/13 01:39:27;;;;;;;;;30.75;26.50;;;;;;;;5082371;27;51083;-53
2023/02/13 01:42:21;;;;;;;;;32.75;25.25;;;;;;;;5082691;27;51093;-55
2023/02/13 01:45:18;;;;;;;;;32.25;24.00;;;;;;;;5082529;27;51549;-55
2023/02/13 01:48:05;;;;;;;;;27.50;23.75;;;;;;;;5082589;27;51056;-53
2023/02/13 01:50:50;;;;;;;;;30.75;26.50;;;;;;;;5082217;27;51568;-51
2023/02/13 01:53:56;;;;;;;;;30.50;25.75;;;;;;;;5082249;27;51108;-55
2023/02/13 01:56:48;;;;;;;;;32.75;24.50;;;;;;;;5082041;27;51167;-52
2023/02/13 01:59:59;;;;;;;;;27.75;25.00;;;;;;;;5082166;27;51118;-53
2023/02/13 02:02:48;;;;;;;;;32.25;26.25;;;;;;;;5081978;27;51132;-53
2023/02/13 02:05:33;;;;;;;;;30.25;23.50;;;;;;;;5081968;27;51054;-53
2023/02/13 02:08:18;;;;;;;;;27.50;24.75;;;;;;;;5082447;27;51593;-51
2023/02/13 02:11:06;;;;;;;;;31.50;25.50;;;;;;;;5082109;27;51484;-53
2023/02/13 02:13:51;;;;;;;;;34.50;26.00;;;;;;;;5081903;27;51115;-54
2023/02/13 02:16:35;;;;;;;;;29.50;26.75;;;;;;;;5081888;27;51172;-52
2023/02/13 02:19:40;;;;;;;;;28.00;21.50;;;;;;;;5082155;27;51052;-53
2023/02/13 02:22:24;;;;;;;;;28.50;22.25;;;;;;;;5081557;27;51157;-55
2023/02/13 02:25:11;;;;;;;;;29.50;25.50;;;;;;;;5081810;27;51065;-53
2023/02/13 02:28:13;;;;;;;;;32.50;23.50;;;;;;;;5081738;27;51632;-54
2023/02/13 02:31:04;;;;;;;;;30.75;23.75;;;;;;;;5081366;27;51201;-53
2023/02/13 02:33:54;;;;;;;;;29.75;25.00;;;;;;;;5081498;27;51070;-54
2023/02/13 02:36:58;;;;;;;;;28.75;23.50;;;;;;;;5081458;27;51487;-54
2023/02/13 02:40:00;;;;;;;;;35.50;27.75;;;;;;;;5081362;27;51236;-51
2023/02/13 02:43:00;;;;;;;;;28.50;27.75;;;;;;;;5061525;27;51070;-54
2023/02/13 02:45:47;;;;;;;;;30.25;25.25;;;;;;;;5061293;28;51102;-54
2023/02/13 02:51:40;;;;;;;;;28.00;25.00;;;;;;;;5081060;27;51049;-53
2023/02/13 03:07:02;;;;;;;;;38.75;31.75;;;;;;;;5059546;28;51163;-51
2023/02/13 03:13:20;;;;;;;;;37.25;31.75;;;;;;;;5080837;27;51144;-54
2023/02/13 03:22:41;;;;;;;;;36.75;29.75;;;;;;;;5080673;27;51666;-52
2023/02/13 03:25:35;;;;;;;;;42.75;33.50;;;;;;;;5080627;27;51364;-55
2023/02/13 03:31:43;;;;;;;;;43.50;35.25;;;;;;;;5064185;27;51014;-54
2023/02/13 03:37:56;;;;;;;;;41.75;35.00;;;;;;;;5080194;27;51120;-55
2023/02/13 03:41:17;;;;;;;;;42.00;33.25;;;;;;;;5080646;27;51064;-53
2023/02/13 03:43:55;;;;;;;;;38.50;31.75;;;;;;;;5079906;27;51949;-54
2023/02/13 03:46:42;;;;;;;;;45.50;33.50;;;;;;;;5080232;27;51280;-50
2023/02/13 03:52:35;;;;;;;;;40.50;32.75;;;;;;;;5079990;27;51113;-52
2023/02/13 04:01:33;;;;;;;;;38.75;32.25;;;;;;;;5080094;27;51093;-53
2023/02/13 04:04:30;;;;;;;;;42.00;33.50;;;;;;;;5079587;27;51093;-53
2023/02/13 04:07:28;;;;;;;;;42.00;33.00;;;;;;;;5080019;27;51109;-55
2023/02/13 04:10:16;;;;;;;;;37.50;32.00;;;;;;;;5079490;27;51469;-50
2023/02/13 04:13:19;;;;;;;;;40.00;32.00;;;;;;;;5079856;27;51313;-50
2023/02/13 04:16:10;;;;;;;;;36.50;31.75;;;;;;;;5079912;27;51638;-55
2023/02/13 04:18:56;;;;;;;;;41.00;32.00;;;;;;;;5079368;27;51065;-52
2023/02/13 04:21:40;;;;;;;;;35.25;30.25;;;;;;;;5080088;27;51034;-55
2023/02/13 04:24:24;;;;;;;;;35.50;31.25;;;;;;;;5079363;27;51469;-54
2023/02/13 04:27:12;;;;;;;;;39.50;32.50;;;;;;;;5079809;28;52536;-53
2023/02/13 04:29:56;;;;;;;;;39.25;32.25;;;;;;;;5079519;28;51024;-53
2023/02/13 04:32:40;;;;;;;;;44.00;35.50;;;;;;;;5079804;28;51077;-53
2023/02/13 04:35:25;;;;;;;;;40.50;32.25;;;;;;;;5079149;28;51118;-57
2023/02/13 04:38:09;;;;;;;;;40.75;32.00;;;;;;;;5079716;28;51143;-56
2023/02/13 04:40:53;;;;;;;;;45.50;37.25;;;;;;;;5079779;28;51049;-56
2023/02/13 04:43:38;;;;;;;;;44.50;37.75;;;;;;;;5078151;28;51459;-53
2023/02/13 04:46:22;;;;;;;;;38.75;34.25;;;;;;;;5079596;28;51042;-58
2023/02/13 04:49:07;;;;;;;;;43.75;35.25;;;;;;;;5079372;28;51038;-57
2023/02/13 04:51:51;;;;;;;;;47.50;37.00;;;;;;;;5079505;28;51720;-55
2023/02/13 04:54:35;;;;;;;;;45.00;35.25;;;;;;;;5079072;28;51272;-57
2023/02/13 04:57:20;;;;;;;;;44.75;35.50;;;;;;;;5079619;28;51168;-54
2023/02/13 05:00:05;;;;;;;;;51.75;36.50;;;;;;;;5073428;28;51116;-57
2023/02/13 05:02:50;;;;;;;;;41.50;33.50;;;;;;;;5061839;28;51065;-58
2023/02/13 05:05:34;;;;;;;;;39.25;32.50;;;;;;;;5059070;28;51549;-54
2023/02/13 05:08:19;;;;;;;;;40.75;34.25;;;;;;;;5059116;28;51130;-55
2023/02/13 05:11:03;;;;;;;;;43.75;36.50;;;;;;;;5059292;28;51067;-56
2023/02/13 05:13:47;;;;;;;;;49.25;37.50;;;;;;;;5058915;28;51432;-53
2023/02/13 05:16:32;;;;;;;;;48.50;37.75;;;;;;;;5072894;28;51579;-55
2023/02/13 05:19:16;;;;;;;;;49.75;38.00;;;;;;;;5073356;28;51138;-54
2023/02/13 05:25:04;;;;;;;;;51.00;40.50;;;;;;;;5063625;28;51094;-56
2023/02/13 05:27:48;;;;;;;;;48.25;39.00;;;;;;;;5066932;28;51142;-53
2023/02/13 05:30:33;;;;;;;;;47.75;37.75;;;;;;;;5069250;27;51137;-56
2023/02/13 05:33:18;;;;;;;;;47.25;37.75;;;;;;;;5064864;27;51141;-56
2023/02/13 05:36:02;;;;;;;;;44.50;36.75;;;;;;;;5067024;27;51035;-57
2023/02/13 05:38:47;;;;;;;;;49.75;37.75;;;;;;;;5069127;27;52101;-56
2023/02/13 05:41:31;;;;;;;;;49.50;40.00;;;;;;;;5064991;27;51613;-55
2023/02/13 05:44:16;;;;;;;;;52.00;38.75;;;;;;;;5068114;27;51147;-55
2023/02/13 05:47:00;;;;;;;;;47.25;36.50;;;;;;;;5070615;27;51182;-54
2023/02/13 05:49:45;;;;;;;;;47.50;37.75;;;;;;;;5069800;27;51327;-58
2023/02/13 05:52:29;;;;;;;;;49.25;38.00;;;;;;;;5065514;27;51204;-54
2023/02/13 05:55:14;;;;;;;;;41.50;36.00;;;;;;;;5066016;27;51639;-57
2023/02/13 05:57:58;;;;;;;;;58.50;45.75;;;;;;;;5065107;27;51350;-58
2023/02/13 06:00:43;;;;;;;;;47.75;38.75;;;;;;;;5064003;27;51030;-56
2023/02/13 06:03:28;;;;;;;;;52.75;39.25;;;;;;;;5067922;27;51439;-55
2023/02/13 06:06:13;;;;;;;;;57.25;45.25;;;;;;;;5064721;27;51132;-57
2023/02/13 06:08:57;;;;;;;;;51.75;40.00;;;;;;;;5067171;27;51188;-55
2023/02/13 06:11:42;;;;;;;;;49.75;40.75;;;;;;;;5066993;27;51123;-58
2023/02/13 06:14:26;;;;;;;;;46.00;38.25;;;;;;;;5066651;27;51146;-58
2023/02/13 06:17:10;;;;;;;;;52.50;40.50;;;;;;;;5074253;27;51163;-58
2023/02/13 06:19:55;;;;;;;;;49.00;38.50;;;;;;;;5068566;27;51106;-57
2023/02/13 06:22:39;;;;;;;;;49.75;39.75;;;;;;;;5067407;27;51799;-57
2023/02/13 06:25:24;;;;;;;;;60.00;44.50;;;;;;;;5065120;27;51157;-54
2023/02/13 06:28:08;;;;;;;;;55.00;44.75;;;;;;;;5071523;27;51513;-56
2023/02/13 06:30:52;;;;;;;;;55.00;43.75;;;;;;;;5069051;27;51653;-55
2023/02/13 06:33:37;;;;;;;;;60.75;46.75;;;;;;;;5065511;27;51430;-57
2023/02/13 06:36:21;;;;;;;;;58.75;47.00;;;;;;;;5058755;27;51217;-56
2023/02/13 06:39:06;;;;;;;;;54.50;43.50;;;;;;;;5062528;27;51405;-55
2023/02/13 06:41:50;;;;;;;;;54.75;42.75;;;;;;;;5064782;27;51115;-57
2023/02/13 06:44:35;;;;;;;;;55.75;43.25;;;;;;;;5067136;27;51087;-58
2023/02/13 06:47:19;;;;;;;;;58.00;45.50;;;;;;;;5061628;27;51078;-57
2023/02/13 06:50:04;;;;;;;;;56.75;45.75;;;;;;;;5066025;27;51133;-60
2023/02/13 06:52:49;;;;;;;;;51.25;41.50;;;;;;;;5060527;27;51138;-55
2023/02/13 06:55:34;;;;;;;;;56.00;43.00;;;;;;;;5059948;27;52201;-57
2023/02/13 06:58:19;;;;;;;;;48.00;40.00;;;;;;;;5061873;27;51189;-58
2023/02/13 07:03:49;;;;;;;;;56.75;43.00;;;;;;;;5027362;28;51640;-57
2023/02/13 07:06:34;;;;;;;;;56.75;44.00;;;;;;;;5026671;28;51363;-56
2023/02/13 07:09:18;;;;;;;;;56.75;43.50;;;;;;;;5026207;28;51676;-57
2023/02/13 07:12:05;;;;;;;;;59.50;45.50;;;;;;;;5024255;28;51273;-57
2023/02/13 07:14:50;;;;;;;;;54.25;44.75;;;;;;;;5023779;28;51181;-57
2023/02/13 07:17:34;;;;;;;;;57.00;44.25;;;;;;;;5026985;28;51325;-55
2023/02/13 07:20:18;;;;;;;;;55.50;43.50;;;;;;;;5033212;28;51593;-58
2023/02/13 07:23:03;;;;;;;;;52.75;41.00;;;;;;;;5018655;28;51544;-56
2023/02/13 07:25:48;;;;;;;;;62.75;49.25;;;;;;;;5019407;28;51173;-56
2023/02/13 07:28:32;;;;;;;;;61.00;48.00;;;;;;;;5015001;28;51310;-59
2023/02/13 07:31:16;;;;;;;;;63.50;48.75;;;;;;;;5018500;28;51491;-58
2023/02/13 07:34:00;;;;;;;;;62.75;47.00;;;;;;;;5035264;28;51590;-58
2023/02/13 07:36:44;;;;;;;;;63.00;47.75;;;;;;;;5032669;28;51131;-58
2023/02/13 07:39:30;;;;;;;;;54.00;43.00;;;;;;;;5029945;28;51070;-55
2023/02/13 07:42:14;;;;;;;;;66.00;49.25;;;;;;;;5067651;27;51199;-59
2023/02/13 07:44:59;;;;;;;;;58.00;46.25;;;;;;;;5066229;27;51141;-59
2023/02/13 07:47:43;;;;;;;;;56.00;44.25;;;;;;;;5067449;27;51058;-56
2023/02/13 07:50:28;;;;;;;;;54.25;43.75;;;;;;;;5064961;27;51096;-56
2023/02/13 07:53:12;;;;;;;;;58.00;45.25;;;;;;;;5068665;27;51143;-58
2023/02/13 07:55:57;;;;;;;;;63.75;48.50;;;;;;;;5067554;27;51136;-58
2023/02/13 07:58:43;;;;;;;;;59.25;46.00;;;;;;;;5065427;27;51081;-57
2023/02/13 08:01:27;;;;;;;;;50.50;40.00;;;;;;;;5061922;27;51161;-59
2023/02/13 08:04:12;;;;;;;;;56.50;43.50;;;;;;;;5062388;27;51019;-59
2023/02/13 08:06:56;;;;;;;;;52.75;42.00;;;;;;;;5066098;27;51370;-57
2023/02/13 08:12:46;;;;;;;;;55.25;43.75;;;;;;;;5066028;28;51834;-58
2023/02/13 08:15:30;;;;;;;;;56.25;44.00;;;;;;;;5067481;27;51135;-58
2023/02/13 08:18:14;;;;;;;;;49.75;40.50;;;;;;;;5062293;27;51169;-60
2023/02/13 08:21:00;;;;;;;;;51.25;40.00;;;;;;;;5064161;27;51136;-58
2023/02/13 08:23:45;;;;;;;;;46.50;37.00;;;;;;;;5071350;28;51628;-57
2023/02/13 08:26:32;;;;;;;;;56.00;43.00;;;;;;;;5065923;28;51232;-58
2023/02/13 08:29:17;;;;;;;;;53.25;42.00;;;;;;;;5070842;28;51120;-59
2023/02/13 08:32:01;;;;;;;;;46.50;37.00;;;;;;;;5069646;28;51262;-59
2023/02/13 08:34:46;;;;;;;;;53.50;43.50;;;;;;;;5068803;28;51474;-57
2023/02/13 08:37:30;;;;;;;;;45.75;35.50;;;;;;;;5063363;28;51153;-54
2023/02/13 08:40:15;;;;;;;;;52.75;40.00;;;;;;;;5062971;28;51683;-57
2023/02/13 08:43:00;;;;;;;;;46.75;37.50;;;;;;;;5059945;28;51734;-59
2023/02/13 08:45:44;;;;;;;;;41.25;34.50;;;;;;;;5066914;28;51135;-59
2023/02/13 08:48:28;;;;;;;;;46.25;36.75;;;;;;;;5071178;28;51059;-54
2023/02/13 08:51:13;;;;;;;;;47.00;38.25;;;;;;;;5070067;28;51119;-57
2023/02/13 08:53:58;;;;;;;;;46.00;36.00;;;;;;;;5059917;28;51227;-58
2023/02/13 08:56:42;;;;;;;;;44.00;35.00;;;;;;;;5062221;28;51201;-56
2023/02/13 08:59:27;;;;;;;;;43.25;35.00;;;;;;;;5069081;28;51208;-55
2023/02/13 09:02:11;;;;;;;;;35.50;30.50;;;;;;;;5070116;28;51086;-59
2023/02/13 09:04:56;;;;;;;;;40.00;32.00;;;;;;;;5062657;27;51088;-58
2023/02/13 09:35:45;;;;;;;;;42.75;33.25;;;;;;;;4328881;32;51167;-59
2023/02/13 09:38:30;;;;;;;;;42.25;32.50;;;;;;;;5077141;28;51116;-57
2023/02/13 09:41:18;;;;;;;;;36.00;32.25;;;;;;;;5077129;28;51372;-55
2023/02/13 09:44:11;;;;;;;;;41.00;31.50;;;;;;;;5068329;28;51665;-57
2023/02/13 09:46:56;;;;;;;;;40.25;32.25;;;;;;;;5068514;28;51520;-51
2023/02/13 09:49:43;;;;;;;;;40.75;34.00;;;;;;;;5076172;28;51653;-54
2023/02/13 09:52:31;;;;;;;;;40.00;32.50;;;;;;;;5075011;27;51037;-59
2023/02/13 09:55:17;;;;;;;;;48.00;36.50;;;;;;;;5071199;28;51136;-58
2023/02/13 09:58:19;;;;;;;;;36.75;31.50;;;;;;;;5062786;28;51623;-57
2023/02/13 10:01:05;;;;;;;;;44.50;35.25;;;;;;;;5066222;28;51400;-56
2023/02/13 10:04:09;;;;;;;;;46.00;35.50;;;;;;;;5065958;28;51116;-53
2023/02/13 10:07:00;;;;;;;;;42.25;35.75;;;;;;;;5067456;27;51132;-59
2023/02/13 10:10:00;;;;;;;;;51.50;37.50;;;;;;;;5060299;27;51538;-53
2023/02/13 10:12:44;;;;;;;;;32.25;30.00;;;;;;;;5063630;27;52165;-56
2023/02/13 10:15:28;;;;;;;;;38.50;33.75;;;;;;;;5062191;28;51226;-54
2023/02/13 10:18:18;;;;;;;;;41.25;33.25;;;;;;;;5064040;28;51405;-54
2023/02/13 10:21:04;;;;;;;;;42.25;32.25;;;;;;;;5063114;28;51440;-55
2023/02/13 10:24:04;;;;;;;;;39.00;31.25;;;;;;;;5061822;28;51094;-53
2023/02/13 10:26:49;;;;;;;;;34.75;31.50;;;;;;;;5069349;28;51607;-52
2023/02/13 10:32:50;;;;;;;;;32.75;31.00;;;;;;;;5061364;28;51080;-55
2023/02/13 10:35:35;;;;;;;;;38.75;28.50;;;;;;;;5058424;28;51152;-53
2023/02/13 10:38:21;;;;;;;;;35.75;28.50;;;;;;;;5048850;28;51196;-58
2023/02/13 10:41:05;;;;;;;;;30.50;27.00;;;;;;;;5050819;28;51281;-57
2023/02/13 10:43:55;;;;;;;;;34.75;28.50;;;;;;;;5053409;28;51095;-58
2023/02/13 10:46:40;;;;;;;;;36.75;29.50;;;;;;;;5049489;28;51550;-55
2023/02/13 10:49:30;;;;;;;;;34.75;31.50;;;;;;;;5055714;28;51675;-53
2023/02/13 10:52:21;;;;;;;;;37.75;29.50;;;;;;;;5053881;28;51215;-55
2023/02/13 10:55:30;;;;;;;;;35.25;31.00;;;;;;;;5051402;28;51097;-57
2023/02/13 10:58:14;;;;;;;;;35.25;29.50;;;;;;;;5044236;28;51142;-56
2023/02/13 11:01:21;;;;;;;;;32.00;28.50;;;;;;;;5052535;28;51313;-55
2023/02/13 11:04:16;;;;;;;;;35.00;28.50;;;;;;;;5056364;28;51546;-57
2023/02/13 11:07:02;;;;;;;;;34.50;29.75;;;;;;;;5051010;28;51648;-56
2023/02/13 11:09:53;;;;;;;;;33.75;30.00;;;;;;;;4973573;28;51152;-58
2023/02/13 11:12:38;;;;;;;;;29.25;27.25;;;;;;;;4977002;28;51908;-51
2023/02/13 11:15:24;;;;;;;;;32.25;27.25;;;;;;;;4973718;28;51511;-52
2023/02/13 11:18:20;;;;;;;;;29.50;27.50;;;;;;;;4975141;28;51113;-56
2023/02/13 11:21:06;;;;;;;;;25.50;21.75;;;;;;;;4974519;28;51288;-57
2023/02/13 11:23:52;;;;;;;;;25.00;21.25;;;;;;;;4974207;28;51522;-53
2023/02/13 11:26:39;;;;;;;;;28.75;23.75;;;;;;;;4962716;28;51192;-55
2023/02/13 11:29:30;;;;;;;;;31.75;23.50;;;;;;;;4974714;28;51246;-56
2023/02/13 11:32:15;;;;;;;;;25.50;20.00;;;;;;;;4972825;28;51255;-58
2023/02/13 11:35:17;;;;;;;;;27.25;23.00;;;;;;;;4974379;28;51317;-59
2023/02/13 11:38:19;;;;;;;;;27.25;22.00;;;;;;;;4977410;28;51465;-57
2023/02/13 11:41:13;;;;;;;;;25.50;25.00;;;;;;;;4975157;28;51309;-55
2023/02/13 11:44:00;;;;;;;;;30.75;26.00;;;;;;;;4976639;28;51218;-57
2023/02/13 11:46:48;;;;;;;;;28.00;24.25;;;;;;;;4994713;28;51219;-57
2023/02/13 11:49:34;;;;;;;;;33.75;24.75;;;;;;;;5057740;28;51425;-56
2023/02/13 11:52:27;;;;;;;;;25.50;23.50;;;;;;;;5059220;28;51368;-59
2023/02/13 11:55:29;;;;;;;;;29.25;25.00;;;;;;;;5057492;28;51462;-56
2023/02/13 11:58:13;;;;;;;;;31.75;28.75;;;;;;;;5059034;28;51258;-57
2023/02/13 12:01:16;;;;;;;;;32.25;27.25;;;;;;;;5055128;28;51148;-57
2023/02/13 12:04:03;;;;;;;;;29.75;24.75;;;;;;;;5058670;28;51561;-60
2023/02/13 12:07:01;;;;;;;;;26.50;22.25;;;;;;;;5057591;28;51633;-53
2023/02/13 12:09:47;;;;;;;;;29.50;26.50;;;;;;;;5056712;28;51133;-58
2023/02/13 12:12:37;;;;;;;;;23.25;21.25;;;;;;;;5054651;28;51207;-54
2023/02/13 12:18:18;;;;;;;;;31.00;23.25;;;;;;;;4991449;28;51064;-59
2023/02/13 12:21:25;;;;;;;;;22.50;20.50;;;;;;;;4985828;28;51556;-56
2023/02/13 12:27:13;;;;;;;;;28.50;24.25;;;;;;;;4936792;28;51140;-56
2023/02/13 12:29:58;;;;;;;;;22.25;19.50;;;;;;;;4937845;28;51212;-58
2023/02/13 12:33:02;;;;;;;;;32.25;24.75;;;;;;;;4936438;28;51436;-56
2023/02/13 12:36:01;;;;;;;;;28.25;26.25;;;;;;;;4937114;28;51187;-56
2023/02/13 12:38:56;;;;;;;;;27.75;21.75;;;;;;;;4938968;28;51101;-57
2023/02/13 12:41:50;;;;;;;;;24.50;22.25;;;;;;;;4879914;29;51886;-57
2023/02/13 12:44:37;;;;;;;;;28.75;22.50;;;;;;;;4879450;29;51165;-57
2023/02/13 12:47:45;;;;;;;;;24.00;23.25;;;;;;;;4878476;29;51565;-52
2023/02/13 12:50:37;;;;;;;;;29.50;25.00;;;;;;;;4877834;29;51266;-50
2023/02/13 12:53:28;;;;;;;;;21.50;18.25;;;;;;;;4879005;29;51266;-55
2023/02/13 12:56:12;;;;;;;;;26.50;22.00;;;;;;;;4904715;28;51477;-53
2023/02/13 12:58:56;;;;;;;;;31.00;22.00;;;;;;;;4909114;28;51579;-45
2023/02/13 13:01:49;;;;;;;;;27.25;25.25;;;;;;;;4912574;28;51206;-49
2023/02/13 13:04:33;;;;;;;;;26.50;23.00;;;;;;;;4946668;28;51003;-48
2023/02/13 13:07:29;;;;;;;;;29.00;25.00;;;;;;;;4958141;28;51515;-49
2023/02/13 13:10:19;;;;;;;;;30.50;27.75;;;;;;;;4960511;28;51247;-51
2023/02/13 13:15:58;;;;;;;;;26.50;22.00;;;;;;;;4907208;28;51206;-51
2023/02/13 13:18:54;;;;;;;;;22.75;20.00;;;;;;;;4963246;28;51245;-56
2023/02/13 13:21:38;;;;;;;;;29.50;24.75;;;;;;;;4992270;28;51269;-55
2023/02/13 13:24:34;;;;;;;;;31.25;25.25;;;;;;;;4996993;28;51272;-55
2023/02/13 13:27:24;;;;;;;;;26.25;24.50;;;;;;;;4995826;28;51172;-55
2023/02/13 13:30:27;;;;;;;;;25.50;23.00;;;;;;;;4992229;28;51169;-57
2023/02/13 13:33:19;;;;;;;;;24.00;20.00;;;;;;;;4995029;28;51479;-56
2023/02/13 13:36:17;;;;;;;;;28.50;25.25;;;;;;;;4995958;28;51225;-55
2023/02/13 13:39:20;;;;;;;;;24.50;19.50;;;;;;;;4996699;28;51627;-57
2023/02/13 13:42:22;;;;;;;;;31.25;26.75;;;;;;;;4998596;28;51102;-56
2023/02/13 13:48:21;;;;;;;;;26.00;21.00;;;;;;;;4957019;28;51356;-53
2023/02/13 13:51:07;;;;;;;;;27.75;25.00;;;;;;;;4956844;28;51069;-57
2023/02/13 13:54:00;;;;;;;;;28.00;25.25;;;;;;;;4956298;28;51080;-56
2023/02/13 13:56:55;;;;;;;;;25.75;23.25;;;;;;;;4957656;28;51111;-57
2023/02/13 13:59:42;;;;;;;;;26.25;25.00;;;;;;;;4956966;28;51574;-57
2023/02/13 14:02:46;;;;;;;;;27.25;24.25;;;;;;;;4957227;28;51206;-55
2023/02/13 14:05:32;;;;;;;;;28.00;22.75;;;;;;;;4957537;28;51144;-56
2023/02/13 14:08:34;;;;;;;;;31.75;25.00;;;;;;;;4957257;28;51057;-58
2023/02/13 14:11:27;;;;;;;;;27.00;25.25;;;;;;;;4959476;28;51200;-55
2023/02/13 14:14:27;;;;;;;;;26.75;24.75;;;;;;;;4960446;28;51542;-56
2023/02/13 14:19:57;;;;;;;;;30.50;25.00;;;;;;;;4960189;28;51181;-51
2023/02/13 14:22:41;;;;;;;;;21.25;19.25;;;;;;;;4960921;28;51083;-55
2023/02/13 14:25:26;;;;;;;;;32.50;27.25;;;;;;;;4973090;28;51539;-55
2023/02/13 14:28:20;;;;;;;;;36.25;29.50;;;;;;;;4980138;28;51229;-55
2023/02/13 14:31:06;;;;;;;;;25.00;21.25;;;;;;;;4980119;28;51447;-54
2023/02/13 14:33:58;;;;;;;;;24.50;21.00;;;;;;;;4978481;28;51095;-55
2023/02/13 14:36:45;;;;;;;;;25.50;24.50;;;;;;;;4979977;28;51131;-54
2023/02/13 14:39:33;;;;;;;;;37.75;27.50;;;;;;;;4979967;28;51168;-53
2023/02/13 14:42:22;;;;;;;;;27.00;22.75;;;;;;;;4980001;28;51187;-53
2023/02/13 14:45:15;;;;;;;;;29.00;25.75;;;;;;;;4979736;28;51134;-55
2023/02/13 14:48:05;;;;;;;;;33.50;24.75;;;;;;;;4980313;28;51116;-53
2023/02/13 14:50:50;;;;;;;;;31.75;27.25;;;;;;;;4979637;28;51130;-54
2023/02/13 14:53:45;;;;;;;;;28.25;21.50;;;;;;;;4979275;28;51266;-54
2023/02/13 14:56:30;;;;;;;;;34.25;28.75;;;;;;;;4996606;28;51234;-53
2023/02/13 14:59:16;;;;;;;;;32.75;26.50;;;;;;;;5061031;28;51166;-54
2023/02/13 15:02:16;;;;;;;;;31.00;27.00;;;;;;;;5061607;28;51090;-51
2023/02/13 15:05:02;;;;;;;;;41.00;29.50;;;;;;;;5061499;28;51119;-51
2023/02/13 15:07:52;;;;;;;;;32.50;26.00;;;;;;;;5061351;28;51166;-53
2023/02/13 15:10:51;;;;;;;;;33.25;27.75;;;;;;;;5022703;28;51226;-51
2023/02/13 15:13:36;;;;;;;;;29.25;23.50;;;;;;;;5019975;28;51522;-50
2023/02/13 15:16:20;;;;;;;;;29.75;26.50;;;;;;;;5023038;28;51492;-52
2023/02/13 15:19:04;;;;;;;;;31.50;27.25;;;;;;;;5021138;28;51093;-52
2023/02/13 15:21:53;;;;;;;;;34.50;27.50;;;;;;;;5029943;28;51504;-52
2023/02/13 15:24:44;;;;;;;;;32.75;27.25;;;;;;;;5031104;28;51188;-49
2023/02/13 15:27:32;;;;;;;;;29.50;24.50;;;;;;;;5032575;28;51027;-53
2023/02/13 15:30:17;;;;;;;;;30.25;28.25;;;;;;;;5026736;28;51202;-51
2023/02/13 15:33:10;;;;;;;;;32.75;28.50;;;;;;;;5019731;28;51138;-50
2023/02/13 15:35:59;;;;;;;;;31.00;25.25;;;;;;;;5029692;28;51281;-48
2023/02/13 15:39:02;;;;;;;;;30.75;25.75;;;;;;;;5018118;28;51140;-51
2023/02/13 15:41:49;;;;;;;;;14.00;14.00;;;;;;;;5017540;28;51574;-53
2023/02/13 15:44:55;;;;;;;;;31.50;26.25;;;;;;;;4959024;28;51158;-51
2023/02/13 15:47:39;;;;;;;;;36.50;32.00;;;;;;;;4976123;28;51170;-52
2023/02/13 15:50:34;;;;;;;;;23.50;20.75;;;;;;;;4978496;28;51099;-53
2023/02/13 15:53:18;;;;;;;;;32.00;26.75;;;;;;;;4973567;28;51117;-53
2023/02/13 15:56:03;;;;;;;;;28.00;24.00;;;;;;;;4978098;28;51110;-52
2023/02/13 15:58:49;;;;;;;;;30.00;28.25;;;;;;;;4978402;28;51126;-50
2023/02/13 16:01:33;;;;;;;;;31.50;28.50;;;;;;;;4978197;28;51135;-52
2023/02/13 16:04:19;;;;;;;;;29.75;26.00;;;;;;;;4978450;28;51181;-49
2023/02/13 16:07:08;;;;;;;;;40.25;30.75;;;;;;;;4978209;28;51283;-49
2023/02/13 16:10:12;;;;;;;;;38.75;30.00;;;;;;;;4977882;28;52543;-52
2023/02/13 16:13:01;;;;;;;;;35.00;28.75;;;;;;;;4969104;28;51694;-50
2023/02/13 16:15:46;;;;;;;;;30.25;27.50;;;;;;;;4975943;28;51312;-51
2023/02/13 16:18:30;;;;;;;;;29.25;24.00;;;;;;;;5002891;28;51164;-52
2023/02/13 16:21:15;;;;;;;;;26.50;24.75;;;;;;;;5051346;28;51177;-49
2023/02/13 16:24:02;;;;;;;;;30.50;23.75;;;;;;;;5046547;28;51189;-50
2023/02/13 16:26:46;;;;;;;;;31.50;29.00;;;;;;;;5049737;28;51228;-51
2023/02/13 16:29:30;;;;;;;;;33.00;26.50;;;;;;;;5044283;28;51132;-51
2023/02/13 16:32:20;;;;;;;;;26.25;21.25;;;;;;;;5045626;28;51592;-48
2023/02/13 16:35:22;;;;;;;;;33.25;28.75;;;;;;;;5045575;28;51410;-50
2023/02/13 16:38:26;;;;;;;;;30.75;28.75;;;;;;;;5054598;28;51338;-50
2023/02/13 17:06:39;;;;;;;;;32.75;27.50;;;;;;;;4297935;32;51684;-50
2023/02/13 17:09:23;;;;;;;;;27.25;25.00;;;;;;;;5056861;28;51064;-53
2023/02/13 17:12:12;;;;;;;;;25.25;23.00;;;;;;;;5057599;28;51589;-49
2023/02/13 17:14:57;;;;;;;;;20.00;18.00;;;;;;;;5055897;28;51187;-49
2023/02/13 17:17:41;;;;;;;;;30.25;25.25;;;;;;;;5054913;28;51539;-50
2023/02/13 17:20:30;;;;;;;;;25.75;23.00;;;;;;;;5056494;28;51197;-48
2023/02/13 17:23:21;;;;;;;;;31.50;27.00;;;;;;;;5056853;28;51161;-48
2023/02/13 17:26:05;;;;;;;;;35.25;26.25;;;;;;;;5070203;28;51155;-50
2023/02/13 17:28:49;;;;;;;;;29.50;27.00;;;;;;;;5076809;28;51494;-48
2023/02/13 17:31:34;;;;;;;;;30.25;28.75;;;;;;;;5076408;28;51103;-50
2023/02/13 17:34:19;;;;;;;;;26.75;26.00;;;;;;;;5077010;28;51404;-48
2023/02/13 17:37:08;;;;;;;;;34.50;26.00;;;;;;;;5076621;28;53031;-50
2023/02/13 17:39:53;;;;;;;;;31.00;26.00;;;;;;;;5076339;28;51178;-49
2023/02/13 17:42:44;;;;;;;;;28.50;26.50;;;;;;;;5076401;28;51550;-50
2023/02/13 17:45:30;;;;;;;;;34.25;25.50;;;;;;;;5076035;28;51182;-48
2023/02/13 17:48:14;;;;;;;;;33.25;28.00;;;;;;;;5076733;28;51090;-49
2023/02/13 17:50:58;;;;;;;;;32.25;29.00;;;;;;;;5076264;28;51174;-52
2023/02/13 17:53:43;;;;;;;;;27.50;24.00;;;;;;;;5076242;28;51491;-49
2023/02/13 17:56:27;;;;;;;;;32.75;27.00;;;;;;;;5076059;28;51231;-49
2023/02/13 17:59:12;;;;;;;;;26.75;25.25;;;;;;;;5076439;28;51164;-49
2023/02/13 18:01:56;;;;;;;;;32.50;29.75;;;;;;;;5076003;28;51345;-50
2023/02/13 18:04:41;;;;;;;;;30.00;26.00;;;;;;;;5074540;28;51144;-50
2023/02/13 18:07:25;;;;;;;;;29.00;23.00;;;;;;;;5063070;28;51097;-50
2023/02/13 18:10:12;;;;;;;;;25.50;25.50;;;;;;;;5052025;28;51041;-49
2023/02/13 18:13:02;;;;;;;;;31.25;23.75;;;;;;;;5042174;28;51072;-51
2023/02/13 18:15:47;;;;;;;;;27.75;23.50;;;;;;;;5047094;28;51335;-49
2023/02/13 18:18:31;;;;;;;;;31.25;27.50;;;;;;;;5053342;28;51677;-51